Time;durP1;ratioP1;P1;durP2;ratioP2;P2;SDS_P1;SDS_P2;PMS_P1;PMS_P2;Temp;Humidity;BMP_temperature;BMP_pressure;BME280_temperature;BME280_humidity;BME280_pressure;Samples;Min_cycle;Max_cycle;Signal;HPM_P1;HPM_P2
2023/03/04 00:01:58;;;;;;;85.82;26.48;;;1.90;99.90;;;;;;4898997;29;20530;-60
2023/03/04 00:04:24;;;;;;;81.88;26.35;;;1.90;99.90;;;;;;4917154;29;20028;-61
2023/03/04 00:06:49;;;;;;;85.55;26.73;;;1.90;99.90;;;;;;4909728;29;20028;-59
2023/03/04 00:09:15;;;;;;;93.40;28.55;;;1.70;99.90;;;;;;4901980;29;20084;-61
2023/03/04 00:11:40;;;;;;;82.40;25.63;;;1.80;99.90;;;;;;4898413;29;20036;-60
2023/03/04 00:14:06;;;;;;;79.28;25.13;;;1.60;99.90;;;;;;4890537;29;20036;-60
2023/03/04 00:16:32;;;;;;;83.40;26.52;;;1.90;99.90;;;;;;4907252;29;20039;-63
2023/03/04 00:18:58;;;;;;;83.88;26.13;;;;;;;;;;4917030;29;20016;-60
2023/03/04 00:21:24;;;;;;;85.18;26.33;;;1.90;99.90;;;;;;4901782;29;20480;-62
2023/03/04 00:23:50;;;;;;;82.43;25.63;;;1.90;99.90;;;;;;4897897;29;20032;-61
2023/03/04 00:26:16;;;;;;;78.00;25.33;;;1.80;99.90;;;;;;4898016;29;20047;-62
2023/03/04 00:28:42;;;;;;;90.75;24.25;;;2.10;99.90;;;;;;4898005;29;20058;-59
2023/03/04 00:31:08;;;;;;;74.43;21.70;;;2.00;99.90;;;;;;4898354;29;20028;-58
2023/03/04 00:33:34;;;;;;;79.68;23.75;;;2.00;99.90;;;;;;4904147;29;20029;-61
2023/03/04 00:36:00;;;;;;;72.65;22.35;;;2.00;99.90;;;;;;4893950;29;20031;-61
2023/03/04 00:38:26;;;;;;;80.55;25.08;;;;;;;;;;4897875;29;20063;-66
2023/03/04 00:40:53;;;;;;;74.03;20.58;;;2.10;99.90;;;;;;4909243;29;20107;-60
2023/03/04 00:43:18;;;;;;;84.38;25.65;;;2.10;99.90;;;;;;4916655;29;20032;-61
2023/03/04 00:45:44;;;;;;;75.72;21.02;;;2.60;99.90;;;;;;4916697;29;20020;-59
2023/03/04 00:48:10;;;;;;;71.68;21.90;;;2.20;99.90;;;;;;4916193;29;20068;-59
2023/03/04 00:50:36;;;;;;;76.68;22.17;;;2.10;99.90;;;;;;4900639;29;20028;-63
2023/03/04 00:53:03;;;;;;;73.10;23.38;;;2.20;99.90;;;;;;4901375;29;20598;-59
2023/03/04 00:55:28;;;;;;;81.13;22.23;;;2.10;99.90;;;;;;4907078;29;20032;-59
2023/03/04 00:57:54;;;;;;;69.20;20.88;;;2.20;99.90;;;;;;4916464;29;20447;-56
2023/03/04 01:00:20;;;;;;;72.80;23.08;;;2.30;99.90;;;;;;4900930;29;20028;-61
2023/03/04 01:02:46;;;;;;;80.72;23.17;;;2.20;99.90;;;;;;4897351;29;20028;-58
2023/03/04 01:05:12;;;;;;;64.45;18.35;;;;;;;;;;4897486;29;20100;-60
2023/03/04 01:07:38;;;;;;;77.63;20.02;;;;;;;;;;4900679;29;20040;-63
2023/03/04 01:10:05;;;;;;;80.35;20.80;;;2.10;99.90;;;;;;4897228;29;20034;-60
2023/03/04 01:12:30;;;;;;;81.57;19.08;;;2.10;99.90;;;;;;4910332;29;20032;-59
2023/03/04 01:14:56;;;;;;;65.05;19.40;;;2.20;99.90;;;;;;4896542;29;20036;-62
2023/03/04 01:17:22;;;;;;;72.10;20.10;;;;;;;;;;4896974;29;20036;-62
2023/03/04 01:19:48;;;;;;;73.22;22.10;;;2.10;99.90;;;;;;4893323;29;20521;-58
2023/03/04 01:22:15;;;;;;;70.38;19.25;;;2.20;99.90;;;;;;4868380;29;20027;-60
2023/03/04 01:24:41;;;;;;;65.82;16.27;;;2.40;99.90;;;;;;4882675;29;20033;-58
2023/03/04 01:27:07;;;;;;;60.88;17.15;;;2.20;99.90;;;;;;4893763;29;20034;-60
2023/03/04 01:29:33;;;;;;;62.90;16.30;;;2.20;99.90;;;;;;4907432;29;20036;-63
2023/03/04 01:31:58;;;;;;;58.45;14.90;;;2.20;99.90;;;;;;4897088;29;20094;-63
2023/03/04 01:34:24;;;;;;;63.05;17.27;;;2.30;99.90;;;;;;4890748;29;20032;-57
2023/03/04 01:36:49;;;;;;;44.53;13.45;;;2.10;99.90;;;;;;4878128;29;20395;-61
2023/03/04 01:39:15;;;;;;;62.17;15.43;;;2.40;99.90;;;;;;4883738;29;20032;-59
2023/03/04 01:41:41;;;;;;;59.05;15.73;;;;;;;;;;4897590;29;20502;-62
2023/03/04 01:44:09;;;;;;;65.20;14.98;;;2.50;99.90;;;;;;4894038;29;20404;-60
2023/03/04 01:46:36;;;;;;;55.10;14.73;;;2.50;99.90;;;;;;4894814;29;20028;-62
2023/03/04 01:49:02;;;;;;;50.25;12.70;;;2.50;99.90;;;;;;4895041;29;20092;-62
2023/03/04 01:51:28;;;;;;;65.65;13.75;;;;;;;;;;4878722;29;20061;-60
2023/03/04 01:53:54;;;;;;;60.83;14.88;;;2.50;99.90;;;;;;4887333;29;20056;-61
2023/03/04 01:56:28;;;;;;;54.10;12.60;;;2.60;99.90;;;;;;4895977;29;20032;-62
2023/03/04 01:59:09;;;;;;;49.78;11.88;;;2.50;99.90;;;;;;4880143;29;20040;-54
2023/03/04 02:01:36;;;;;;;55.13;13.13;;;2.60;99.90;;;;;;4882005;29;20372;-61
2023/03/04 02:04:02;;;;;;;55.38;13.90;;;;;;;;;;4878479;29;20473;-59
2023/03/04 02:06:28;;;;;;;40.67;12.10;;;2.60;99.90;;;;;;4877677;29;20029;-58
2023/03/04 02:08:53;;;;;;;39.08;9.27;;;2.60;99.90;;;;;;4890669;29;20612;-60
2023/03/04 02:11:19;;;;;;;50.20;10.43;;;2.90;99.90;;;;;;4878655;29;20029;-59
2023/03/04 02:13:45;;;;;;;47.83;11.05;;;2.80;99.90;;;;;;4890526;29;20037;-60
2023/03/04 02:16:11;;;;;;;42.83;11.50;;;2.80;99.90;;;;;;4895174;29;20036;-60
2023/03/04 02:18:36;;;;;;;52.63;12.10;;;2.70;99.90;;;;;;4877432;29;20115;-61
2023/03/04 02:21:32;;;;;;;49.40;12.43;;;2.80;99.90;;;;;;4895224;29;20021;-59
2023/03/04 02:24:29;;;;;;;30.90;10.43;;;2.60;99.90;;;;;;4861026;29;20566;-59
2023/03/04 02:26:55;;;;;;;34.28;10.23;;;2.90;99.90;;;;;;4878074;29;20036;-60
2023/03/04 02:29:21;;;;;;;34.50;8.32;;;;;;;;;;4890291;29;20085;-61
2023/03/04 02:31:50;;;;;;;46.38;13.63;;;3.60;99.90;;;;;;4878873;29;20156;-58
2023/03/04 02:34:48;;;;;;;42.92;8.27;;;2.90;99.90;;;;;;4877468;29;20249;-61
2023/03/04 02:37:15;;;;;;;50.47;11.32;;;3.00;99.90;;;;;;4869156;29;20036;-61
2023/03/04 02:39:43;;;;;;;30.90;7.97;;;2.90;99.90;;;;;;4888848;29;20033;-62
2023/03/04 02:42:09;;;;;;;38.05;8.05;;;3.00;99.90;;;;;;4878495;29;20033;-61
2023/03/04 02:44:38;;;;;;;38.85;9.52;;;3.00;99.90;;;;;;4889026;29;20037;-60
2023/03/04 02:47:07;;;;;;;40.33;8.23;;;3.00;99.90;;;;;;4895597;29;20521;-59
2023/03/04 02:49:34;;;;;;;34.08;7.38;;;3.20;99.90;;;;;;4888263;29;20041;-60
2023/03/04 02:52:16;;;;;;;54.15;8.20;;;3.20;99.90;;;;;;4878019;29;20029;-62
2023/03/04 02:54:42;;;;;;;36.08;8.40;;;;;;;;;;4877264;29;20051;-62
2023/03/04 02:57:10;;;;;;;49.72;10.80;;;3.30;99.90;;;;;;4895956;29;20029;-60
2023/03/04 02:59:37;;;;;;;32.72;7.32;;;3.10;99.90;;;;;;4908862;23;20066;-58
2023/03/04 03:02:04;;;;;;;61.80;9.07;;;3.30;99.90;;;;;;4895308;29;20037;-59
2023/03/04 03:04:29;;;;;;;34.85;10.05;;;3.40;99.90;;;;;;4890784;29;20111;-59
2023/03/04 03:06:55;;;;;;;35.13;8.60;;;3.20;99.90;;;;;;4892786;29;20115;-61
2023/03/04 03:09:21;;;;;;;31.30;8.30;;;3.30;99.90;;;;;;4894909;29;20235;-63
2023/03/04 03:11:46;;;;;;;34.75;8.63;;;3.20;99.90;;;;;;4895044;29;20526;-63
2023/03/04 03:14:12;;;;;;;31.83;7.97;;;3.30;99.90;;;;;;4896537;29;20084;-61
2023/03/04 03:16:38;;;;;;;27.40;7.70;;;3.20;99.90;;;;;;4893906;29;20040;-61
2023/03/04 03:19:04;;;;;;;30.17;7.32;;;3.30;99.90;;;;;;4897533;29;20028;-61
2023/03/04 03:21:29;;;;;;;31.77;8.10;;;3.30;99.90;;;;;;4884798;29;20474;-62
2023/03/04 03:23:55;;;;;;;34.30;7.93;;;3.10;99.90;;;;;;4898878;29;20468;-64
2023/03/04 03:26:21;;;;;;;36.47;8.57;;;2.80;99.90;;;;;;4890838;29;20458;-63
2023/03/04 03:28:46;;;;;;;46.60;8.48;;;3.30;99.90;;;;;;4898983;29;20115;-55
2023/03/04 03:31:12;;;;;;;35.97;8.90;;;3.30;99.90;;;;;;4881147;29;20124;-62
2023/03/04 03:33:38;;;;;;;39.92;7.32;;;3.40;99.90;;;;;;4879681;29;20120;-63
2023/03/04 03:36:04;;;;;;;37.53;7.15;;;3.40;99.90;;;;;;4886910;29;20419;-59
2023/03/04 03:38:29;;;;;;;32.15;8.18;;;3.30;99.90;;;;;;4880262;29;20201;-63
2023/03/04 03:40:55;;;;;;;34.97;7.45;;;2.70;99.90;;;;;;4880907;29;20526;-57
2023/03/04 03:43:21;;;;;;;32.38;7.68;;;3.20;99.90;;;;;;4884195;29;20156;-60
2023/03/04 03:45:46;;;;;;;28.67;7.05;;;3.40;99.90;;;;;;4898740;29;20051;-64
2023/03/04 03:48:12;;;;;;;35.63;7.28;;;3.10;99.90;;;;;;4896763;29;20033;-63
2023/03/04 03:50:38;;;;;;;48.40;7.05;;;3.20;99.90;;;;;;4887887;29;20057;-64
2023/03/04 03:53:04;;;;;;;30.17;8.00;;;3.20;99.90;;;;;;4898082;29;20035;-63
2023/03/04 03:55:29;;;;;;;34.10;6.82;;;3.20;99.90;;;;;;4898361;29;20510;-61
2023/03/04 03:57:55;;;;;;;31.02;7.22;;;3.10;99.90;;;;;;4898020;29;20032;-62
2023/03/04 04:00:21;;;;;;;23.73;6.80;;;3.30;99.90;;;;;;4897591;29;20129;-62
2023/03/04 04:02:47;;;;;;;28.02;6.55;;;3.40;99.90;;;;;;4895349;29;20081;-62
2023/03/04 04:05:13;;;;;;;26.00;6.28;;;3.20;99.90;;;;;;4890665;29;20157;-63
2023/03/04 04:07:40;;;;;;;39.88;7.68;;;3.30;99.90;;;;;;4888399;29;20029;-63
2023/03/04 04:10:06;;;;;;;40.08;7.93;;;3.30;99.90;;;;;;4895058;29;20041;-64
2023/03/04 04:12:32;;;;;;;21.63;6.03;;;3.30;99.90;;;;;;4882194;29;20495;-64
2023/03/04 04:14:57;;;;;;;39.92;7.13;;;3.30;99.90;;;;;;4897774;29;20033;-64
2023/03/04 04:17:23;;;;;;;34.58;7.45;;;3.30;99.90;;;;;;4883044;29;20457;-60
2023/03/04 04:19:49;;;;;;;40.53;7.30;;;2.80;99.90;;;;;;4892924;29;20076;-63
2023/03/04 04:22:19;;;;;;;21.58;6.93;;;3.20;99.90;;;;;;4897847;29;20558;-64
2023/03/04 04:24:45;;;;;;;30.38;7.07;;;3.40;99.90;;;;;;4879628;29;20104;-63
2023/03/04 04:27:11;;;;;;;23.67;8.05;;;3.30;99.90;;;;;;4879309;29;20117;-64
2023/03/04 04:29:36;;;;;;;33.70;7.00;;;3.50;99.90;;;;;;4894964;29;20487;-63
2023/03/04 04:32:03;;;;;;;38.15;6.53;;;3.30;99.90;;;;;;4897971;29;20025;-64
2023/03/04 04:34:29;;;;;;;38.13;7.93;;;3.30;99.90;;;;;;4882344;29;20444;-63
2023/03/04 04:36:54;;;;;;;42.88;7.68;;;3.30;99.90;;;;;;4878989;29;20049;-63
2023/03/04 04:39:20;;;;;;;28.95;7.18;;;3.30;99.90;;;;;;4892458;29;20031;-61
2023/03/04 04:41:46;;;;;;;37.65;7.53;;;3.40;99.90;;;;;;4897652;29;20060;-63
2023/03/04 04:44:12;;;;;;;34.92;7.43;;;3.30;99.90;;;;;;4885020;29;20109;-62
2023/03/04 04:46:39;;;;;;;49.33;7.43;;;3.30;99.90;;;;;;4878887;29;20071;-60
2023/03/04 04:49:06;;;;;;;28.65;5.60;;;3.30;99.90;;;;;;4890388;29;20032;-61
2023/03/04 04:51:33;;;;;;;36.35;6.25;;;3.30;99.90;;;;;;4897549;29;20037;-64
2023/03/04 04:53:59;;;;;;;29.50;5.70;;;3.40;99.90;;;;;;4886328;29;20056;-63
2023/03/04 04:56:26;;;;;;;29.30;5.88;;;3.40;99.90;;;;;;4878570;29;20436;-60
2023/03/04 04:58:55;;;;;;;47.42;6.95;;;3.40;99.90;;;;;;4890379;29;20485;-63
2023/03/04 05:01:21;;;;;;;32.83;5.40;;;3.20;99.90;;;;;;4895298;29;20060;-63
2023/03/04 05:03:48;;;;;;;32.13;5.28;;;3.40;99.90;;;;;;4897036;29;20396;-64
2023/03/04 05:06:14;;;;;;;35.55;5.90;;;3.40;99.90;;;;;;4881165;29;20025;-63
2023/03/04 05:08:40;;;;;;;28.55;6.25;;;3.40;99.90;;;;;;4879108;29;20033;-62
2023/03/04 05:11:06;;;;;;;32.22;6.10;;;3.50;99.90;;;;;;4878224;29;20538;-63
2023/03/04 05:13:32;;;;;;;26.67;5.97;;;3.40;99.90;;;;;;4887790;29;20066;-62
2023/03/04 05:15:58;;;;;;;27.25;5.53;;;3.40;99.90;;;;;;4896275;29;20092;-61
2023/03/04 05:18:25;;;;;;;29.30;5.63;;;3.40;99.90;;;;;;4887706;29;20037;-61
2023/03/04 05:20:59;;;;;;;41.75;5.90;;;3.40;99.90;;;;;;4877896;29;20037;-59
2023/03/04 05:23:26;;;;;;;25.27;4.88;;;4.40;99.90;;;;;;4878524;29;20383;-63
2023/03/04 05:25:52;;;;;;;26.80;4.47;;;3.50;99.90;;;;;;4878178;29;20121;-61
2023/03/04 05:28:18;;;;;;;24.98;4.22;;;3.50;99.90;;;;;;4887935;29;20518;-61
2023/03/04 05:30:44;;;;;;;26.15;4.20;;;3.60;99.90;;;;;;4877377;29;20108;-61
2023/03/04 05:33:11;;;;;;;28.63;4.25;;;4.20;99.90;;;;;;4893753;29;20052;-63
2023/03/04 05:35:38;;;;;;;24.27;4.43;;;3.60;99.90;;;;;;4879844;29;20032;-60
2023/03/04 05:38:06;;;;;;;42.30;4.80;;;3.60;99.90;;;;;;4886654;29;20029;-62
2023/03/04 05:40:32;;;;;;;21.08;3.60;;;3.70;99.90;;;;;;4889089;29;20033;-64
2023/03/04 05:42:58;;;;;;;32.95;4.85;;;3.60;99.90;;;;;;4860818;29;20090;-57
2023/03/04 05:45:25;;;;;;;17.00;4.47;;;3.70;99.90;;;;;;4879139;29;20025;-65
2023/03/04 05:47:51;;;;;;;26.83;4.40;;;3.80;99.90;;;;;;4881534;29;20518;-61
2023/03/04 05:50:17;;;;;;;22.50;3.85;;;3.60;99.90;;;;;;4891251;29;20029;-62
2023/03/04 05:52:43;;;;;;;14.57;3.67;;;3.60;99.90;;;;;;4890244;29;20111;-60
2023/03/04 05:55:09;;;;;;;27.73;4.10;;;3.60;99.90;;;;;;4896243;29;20103;-59
2023/03/04 05:57:35;;;;;;;24.35;4.22;;;3.60;99.90;;;;;;4882752;29;20062;-63
2023/03/04 06:00:01;;;;;;;17.92;3.42;;;3.60;99.90;;;;;;4893405;29;20072;-62
2023/03/04 06:02:26;;;;;;;18.75;3.70;;;3.70;99.90;;;;;;4877576;29;20021;-60
2023/03/04 06:04:52;;;;;;;12.30;3.10;;;3.50;99.90;;;;;;4889651;29;20139;-63
2023/03/04 06:07:18;;;;;;;31.90;3.83;;;3.70;99.90;;;;;;4889244;29;20032;-60
2023/03/04 06:09:44;;;;;;;26.33;3.17;;;;;;;;;;4877565;29;20438;-60
2023/03/04 06:12:11;;;;;;;19.13;4.65;;;3.80;99.90;;;;;;4894534;29;20052;-62
2023/03/04 06:14:36;;;;;;;16.40;3.50;;;3.70;99.90;;;;;;4873986;29;20036;-62
2023/03/04 06:17:03;;;;;;;18.27;2.92;;;3.80;99.90;;;;;;4895317;29;20440;-63
2023/03/04 06:19:28;;;;;;;18.92;2.40;;;3.90;99.90;;;;;;4880561;29;20033;-64
2023/03/04 06:21:54;;;;;;;22.67;3.17;;;3.80;99.90;;;;;;4894171;29;20394;-61
2023/03/04 06:24:20;;;;;;;19.45;3.22;;;3.70;99.90;;;;;;4895675;29;20040;-58
2023/03/04 06:26:45;;;;;;;19.98;2.88;;;3.60;99.90;;;;;;4880311;29;20053;-62
2023/03/04 06:29:11;;;;;;;14.45;3.00;;;3.40;99.90;;;;;;4881134;29;20451;-63
2023/03/04 06:31:38;;;;;;;20.10;3.05;;;3.80;99.90;;;;;;4885860;29;20068;-60
2023/03/04 06:34:04;;;;;;;16.08;4.32;;;4.40;99.90;;;;;;4879592;29;20439;-63
2023/03/04 06:36:29;;;;;;;23.33;4.55;;;3.90;99.90;;;;;;4894415;29;20124;-62
2023/03/04 06:38:55;;;;;;;25.00;5.82;;;4.50;99.90;;;;;;4894319;29;20020;-62
2023/03/04 06:41:21;;;;;;;21.88;3.42;;;;;;;;;;4882769;29;20049;-62
2023/03/04 06:43:46;;;;;;;22.00;3.35;;;1.20;99.90;;;;;;4899330;29;20032;-63
2023/03/04 06:46:12;;;;;;;15.73;3.58;;;3.90;99.90;;;;;;4885503;29;20033;-64
2023/03/04 06:48:38;;;;;;;20.23;3.15;;;3.80;99.90;;;;;;4880904;29;20040;-63
2023/03/04 06:51:08;;;;;;;21.65;3.17;;;3.90;99.90;;;;;;4895654;29;20036;-63
2023/03/04 06:53:34;;;;;;;18.27;3.38;;;4.00;99.90;;;;;;4882229;29;20566;-61
2023/03/04 06:56:00;;;;;;;20.38;3.08;;;4.00;99.90;;;;;;4884056;29;20029;-60
2023/03/04 06:58:26;;;;;;;23.13;4.68;;;3.90;99.90;;;;;;4880332;29;20403;-63
2023/03/04 07:00:51;;;;;;;21.35;3.55;;;3.80;99.90;;;;;;4893706;29;20063;-62
2023/03/04 07:03:17;;;;;;;16.85;2.90;;;3.90;99.90;;;;;;4880442;29;20038;-61
2023/03/04 07:05:43;;;;;;;8.70;3.17;;;3.90;99.90;;;;;;4893203;29;20035;-63
2023/03/04 07:08:08;;;;;;;15.55;4.70;;;4.00;99.90;;;;;;4897613;29;20043;-61
2023/03/04 07:10:34;;;;;;;15.88;3.63;;;3.80;99.90;;;;;;4899287;29;20037;-58
2023/03/04 07:13:00;;;;;;;17.45;4.05;;;3.90;99.90;;;;;;4882184;29;20029;-62
2023/03/04 07:15:27;;;;;;;21.23;4.05;;;4.10;99.90;;;;;;4890256;29;20116;-62
2023/03/04 07:17:52;;;;;;;19.95;3.30;;;3.90;99.90;;;;;;4899097;29;20029;-63
2023/03/04 07:20:18;;;;;;;9.88;3.60;;;4.10;99.90;;;;;;4897543;29;20034;-62
2023/03/04 07:22:44;;;;;;;21.65;3.10;;;4.10;99.90;;;;;;4884772;29;20044;-63
2023/03/04 07:25:09;;;;;;;14.68;3.90;;;4.00;99.90;;;;;;4887749;29;20084;-63
2023/03/04 07:27:37;;;;;;;11.27;3.92;;;4.00;99.90;;;;;;4898976;29;20521;-61
2023/03/04 07:30:04;;;;;;;14.48;3.67;;;4.20;99.90;;;;;;4897416;29;20107;-62
2023/03/04 07:32:29;;;;;;;16.65;3.38;;;4.20;99.90;;;;;;4887053;29;20041;-58
2023/03/04 07:34:55;;;;;;;12.38;4.00;;;4.40;99.90;;;;;;4887917;29;20092;-62
2023/03/04 07:37:21;;;;;;;16.35;3.10;;;4.10;99.90;;;;;;4898748;29;20506;-61
2023/03/04 07:39:46;;;;;;;11.73;3.55;;;4.30;99.90;;;;;;4891734;29;20036;-63
2023/03/04 07:42:12;;;;;;;17.35;5.30;;;4.40;99.90;;;;;;4886226;29;20041;-62
2023/03/04 07:44:38;;;;;;;13.52;3.08;;;4.30;99.90;;;;;;4880567;29;20088;-62
2023/03/04 07:47:03;;;;;;;7.85;2.63;;;4.20;99.90;;;;;;4880820;29;20483;-61
2023/03/04 07:49:29;;;;;;;16.63;3.25;;;4.30;99.90;;;;;;4898615;29;20495;-62
2023/03/04 07:51:55;;;;;;;23.55;4.18;;;4.30;99.90;;;;;;4898576;29;20032;-62
2023/03/04 07:54:20;;;;;;;16.35;4.53;;;4.20;99.90;;;;;;4885257;29;20029;-64
2023/03/04 07:56:46;;;;;;;11.05;3.58;;;4.30;99.90;;;;;;4898555;29;20149;-61
2023/03/04 07:59:11;;;;;;;15.93;3.97;;;4.30;99.90;;;;;;4898330;29;20080;-60
2023/03/04 08:01:37;;;;;;;22.20;4.20;;;4.50;99.90;;;;;;4897658;29;20024;-62
2023/03/04 08:04:04;;;;;;;13.23;4.00;;;4.30;99.90;;;;;;4896448;29;20059;-58
2023/03/04 08:06:31;;;;;;;15.45;2.83;;;4.40;99.90;;;;;;4898219;29;20555;-62
2023/03/04 08:09:00;;;;;;;8.85;2.67;;;4.00;99.90;;;;;;4891132;29;20169;-59
2023/03/04 08:11:27;;;;;;;12.82;3.17;;;4.80;99.90;;;;;;4893821;29;20119;-62
2023/03/04 08:13:53;;;;;;;9.60;3.72;;;4.40;99.90;;;;;;4895940;29;20032;-62
2023/03/04 08:16:20;;;;;;;9.90;2.72;;;4.40;99.90;;;;;;4880438;29;20026;-62
2023/03/04 08:18:49;;;;;;;8.70;2.88;;;4.40;99.90;;;;;;4897542;29;20040;-62
2023/03/04 08:21:18;;;;;;;5.72;2.15;;;4.40;99.90;;;;;;4881569;29;20025;-60
2023/03/04 08:23:44;;;;;;;5.22;1.65;;;4.40;99.90;;;;;;4892622;29;20499;-57
2023/03/04 08:26:23;;;;;;;8.05;2.50;;;4.50;99.90;;;;;;4891110;29;20047;-62
2023/03/04 08:28:48;;;;;;;12.43;2.30;;;4.50;99.90;;;;;;4889257;29;20256;-61
2023/03/04 08:31:16;;;;;;;10.73;2.38;;;4.40;99.90;;;;;;4897971;29;20530;-61
2023/03/04 08:33:42;;;;;;;8.00;2.00;;;4.40;99.90;;;;;;4897440;29;20036;-62
2023/03/04 08:36:08;;;;;;;6.55;1.60;;;4.40;99.90;;;;;;4897830;29;20427;-64
2023/03/04 08:38:34;;;;;;;16.77;2.20;;;4.90;99.90;;;;;;4892109;29;20029;-58
2023/03/04 08:41:02;;;;;;;10.80;1.90;;;4.70;99.90;;;;;;4887675;29;20032;-56
2023/03/04 08:43:27;;;;;;;8.27;1.83;;;5.00;99.90;;;;;;4878515;29;20456;-61
2023/03/04 08:45:55;;;;;;;9.90;2.25;;;4.80;99.90;;;;;;4878296;29;20053;-59
2023/03/04 08:48:21;;;;;;;9.80;2.20;;;5.00;99.90;;;;;;4879919;29;20105;-59
2023/03/04 08:50:48;;;;;;;11.13;1.73;;;5.10;99.90;;;;;;4895776;29;20032;-62
2023/03/04 08:53:15;;;;;;;17.98;1.40;;;4.10;99.90;;;;;;4877245;29;20472;-61
2023/03/04 08:55:41;;;;;;;13.57;1.85;;;5.10;99.90;;;;;;4878799;29;20033;-62
2023/03/04 09:00:47;;;;;;;5.88;1.60;;;5.20;99.90;;;;;;4895697;29;20538;-59
2023/03/04 09:03:13;;;;;;;7.07;1.30;;;5.10;99.90;;;;;;4896723;29;20043;-61
2023/03/04 09:05:40;;;;;;;11.32;1.70;;;5.30;99.90;;;;;;4899970;29;20041;-62
2023/03/04 09:08:06;;;;;;;10.63;1.65;;;5.40;99.90;;;;;;4898738;29;20452;-60
2023/03/04 09:10:32;;;;;;;17.35;4.15;;;5.40;99.90;;;;;;4888369;29;20055;-62
2023/03/04 09:12:59;;;;;;;28.23;6.28;;;;;;;;;;4913760;29;20387;-54
2023/03/04 09:15:25;;;;;;;19.92;2.33;;;5.40;99.90;;;;;;4911332;29;20440;-61
2023/03/04 09:17:51;;;;;;;6.25;1.20;;;5.60;99.90;;;;;;4896941;29;20021;-60
2023/03/04 09:20:17;;;;;;;5.13;1.38;;;5.50;99.90;;;;;;4897112;29;20025;-61
2023/03/04 09:22:43;;;;;;;14.13;1.70;;;;;;;;;;4898180;29;20211;-59
2023/03/04 09:25:12;;;;;;;4.38;1.60;;;5.50;99.90;;;;;;4893762;29;20372;-59
2023/03/04 09:27:38;;;;;;;5.93;1.50;;;;;;;;;;4902757;29;20050;-57
2023/03/04 09:30:04;;;;;;;7.55;1.80;;;5.80;99.90;;;;;;4909336;29;20481;-60
2023/03/04 09:32:30;;;;;;;7.78;1.67;;;5.90;99.90;;;;;;4896684;29;20115;-61
2023/03/04 09:34:56;;;;;;;13.73;1.98;;;5.80;99.90;;;;;;4896480;29;20173;-61
2023/03/04 09:37:22;;;;;;;10.25;1.70;;;;;;;;;;4896715;29;20036;-63
2023/03/04 09:39:49;;;;;;;12.98;2.85;;;;;;;;;;4890154;29;20550;-58
2023/03/04 09:42:26;;;;;;;12.02;1.60;;;5.80;99.90;;;;;;4893713;29;20020;-60
2023/03/04 09:44:53;;;;;;;6.03;1.80;;;5.80;99.90;;;;;;4896237;29;20032;-56
2023/03/04 09:47:20;;;;;;;9.63;2.22;;;6.10;99.90;;;;;;4912822;29;20613;-61
2023/03/04 09:49:58;;;;;;;10.05;1.48;;;5.60;99.90;;;;;;4915016;29;20055;-62
2023/03/04 09:52:27;;;;;;;4.80;1.77;;;5.60;99.90;;;;;;4915512;29;20107;-57
2023/03/04 09:54:53;;;;;;;18.27;2.88;;;;;;;;;;4915176;29;20059;-58
2023/03/04 09:57:40;;;;;;;10.20;1.50;;;5.70;99.90;;;;;;4914293;29;20160;-60
2023/03/04 10:00:12;;;;;;;11.05;1.38;;;5.60;99.90;;;;;;4914853;29;20032;-55
2023/03/04 10:02:52;;;;;;;5.68;0.90;;;5.70;99.90;;;;;;4915263;29;20028;-60
2023/03/04 10:05:22;;;;;;;6.05;1.33;;;5.60;99.90;;;;;;4914946;29;20023;-56
2023/03/04 10:07:54;;;;;;;7.43;1.35;;;5.60;99.90;;;;;;4915010;29;20028;-57
2023/03/04 10:10:42;;;;;;;10.50;1.30;;;5.50;99.90;;;;;;4914918;29;20020;-61
2023/03/04 10:13:15;;;;;;;6.75;1.20;;;5.60;99.90;;;;;;4915033;29;20036;-58
2023/03/04 10:15:45;;;;;;;8.43;1.55;;;5.50;99.90;;;;;;4914701;29;20051;-59
2023/03/04 10:18:18;;;;;;;11.43;1.65;;;5.50;99.90;;;;;;4897598;29;20028;-59
2023/03/04 10:20:55;;;;;;;11.85;1.42;;;5.60;99.90;;;;;;4915013;29;20198;-59
2023/03/04 10:23:25;;;;;;;10.80;2.92;;;5.50;99.90;;;;;;4914277;29;20040;-55
2023/03/04 10:25:53;;;;;;;16.58;1.63;;;5.60;99.90;;;;;;4914754;29;20063;-57
2023/03/04 10:28:29;;;;;;;12.68;1.70;;;5.60;99.90;;;;;;4914962;29;20047;-59
2023/03/04 10:31:14;;;;;;;15.70;1.60;;;5.70;99.90;;;;;;4914796;29;20122;-58
2023/03/04 10:33:40;;;;;;;46.17;5.07;;;5.60;99.90;;;;;;4897234;29;20164;-62
2023/03/04 10:36:30;;;;;;;12.15;1.55;;;5.80;99.90;;;;;;4897683;29;20028;-53
2023/03/04 10:39:10;;;;;;;13.10;2.50;;;5.80;99.90;;;;;;4914576;29;20502;-59
2023/03/04 10:41:40;;;;;;;15.68;2.08;;;5.80;99.90;;;;;;4914404;29;20076;-56
2023/03/04 10:44:09;;;;;;;11.23;2.28;;;6.00;99.90;;;;;;4914765;29;20032;-59
2023/03/04 10:46:44;;;;;;;20.45;1.73;;;6.10;99.90;;;;;;4897567;29;20025;-57
2023/03/04 10:49:10;;;;;;;;;;;6.20;99.90;;;;;;4914940;29;20091;-57
2023/03/04 10:51:48;;;;;;;13.95;2.65;;;6.80;99.90;;;;;;4914900;29;19915;-60
2023/03/04 10:54:39;;;;;;;11.80;1.85;;;6.70;99.90;;;;;;4914132;29;20032;-61
2023/03/04 10:57:16;;;;;;;15.73;1.67;;;6.70;99.90;;;;;;4901453;29;20204;-59
2023/03/04 10:59:52;;;;;;;13.20;1.85;;;6.60;99.90;;;;;;4914458;29;20040;-60
2023/03/04 11:02:33;;;;;;;13.48;2.25;;;6.50;99.90;;;;;;4914536;29;20447;-58
2023/03/04 11:05:19;;;;;;;38.95;4.07;;;6.20;99.90;;;;;;4914197;29;20032;-56
2023/03/04 11:07:57;;;;;;;19.30;1.90;;;6.10;99.90;;;;;;4911061;29;20443;-58
2023/03/04 11:10:39;;;;;;;7.88;1.40;;;6.10;99.90;;;;;;4901589;29;20076;-58
2023/03/04 11:13:11;;;;;;;18.48;1.80;;;6.40;99.90;;;;;;4881976;29;20032;-57
2023/03/04 11:15:55;;;;;;;9.43;2.17;;;6.30;99.90;;;;;;4555916;29;9999730;-57
2023/03/04 11:18:46;;;;;;;18.98;1.92;;;6.00;99.90;;;;;;4890588;29;20025;-58
2023/03/04 11:21:35;;;;;;;19.60;1.88;;;6.30;99.90;;;;;;4892629;29;20503;-59
2023/03/04 11:24:13;;;;;;;14.27;1.60;;;5.20;99.90;;;;;;4891708;29;20364;-59
2023/03/04 11:26:45;;;;;;;23.23;1.90;;;6.20;99.90;;;;;;4891586;29;20112;-59
2023/03/04 11:29:13;;;;;;;20.77;2.15;;;6.00;99.90;;;;;;4894390;29;20039;-60
2023/03/04 11:31:46;;;;;;;16.95;1.80;;;6.10;99.90;;;;;;4895385;29;20101;-61
2023/03/04 11:34:28;;;;;;;13.85;1.75;;;6.10;99.90;;;;;;4895226;29;20036;-56
2023/03/04 11:37:02;;;;;;;26.75;1.88;;;6.20;99.90;;;;;;4895698;29;20028;-61
2023/03/04 11:39:50;;;;;;;20.25;2.00;;;6.10;99.90;;;;;;4895458;29;20398;-55
2023/03/04 11:42:32;;;;;;;18.67;3.17;;;6.00;99.90;;;;;;4895828;29;20036;-60
2023/03/04 11:44:58;;;;;;;17.23;2.53;;;5.90;99.90;;;;;;4896924;29;20036;-56
2023/03/04 11:47:45;;;;;;;16.98;2.05;;;5.90;99.90;;;;;;4560229;29;10000521;-58
2023/03/04 11:50:27;;;;;;;19.77;2.22;;;6.10;99.90;;;;;;4886800;29;20044;-58
2023/03/04 11:53:18;;;;;;;22.27;2.05;;;6.30;99.90;;;;;;4898050;29;20033;-61
2023/03/04 11:56:12;;;;;;;23.05;2.70;;;6.30;99.90;;;;;;4898878;29;20029;-58
2023/03/04 11:58:50;;;;;;;18.27;2.30;;;6.30;99.90;;;;;;4897337;29;20492;-59
2023/03/04 12:01:22;;;;;;;20.60;2.20;;;6.10;99.90;;;;;;4896962;29;20064;-55
2023/03/04 12:04:06;;;;;;;18.05;1.92;;;6.00;99.90;;;;;;4898921;29;20051;-61
2023/03/04 12:06:51;;;;;;;23.77;1.80;;;5.90;99.90;;;;;;4898860;29;20036;-58
2023/03/04 12:09:22;;;;;;;18.70;2.22;;;5.90;99.90;;;;;;4898859;29;20092;-54
2023/03/04 12:12:00;;;;;;;22.00;2.15;;;5.90;99.90;;;;;;4898976;29;20029;-56
2023/03/04 12:14:54;;;;;;;22.20;3.05;;;5.90;99.90;;;;;;4900519;29;20088;-54
2023/03/04 12:17:29;;;;;;;18.40;3.17;;;5.40;99.90;;;;;;4894901;29;20602;-58
2023/03/04 12:19:57;;;;;;;19.08;2.30;;;6.30;99.90;;;;;;4898841;29;20254;-58
2023/03/04 12:22:35;;;;;;;17.83;2.55;;;5.80;99.90;;;;;;4898008;29;20571;-55
2023/03/04 12:25:23;;;;;;;24.80;2.63;;;5.80;99.90;;;;;;4898425;29;20093;-58
2023/03/04 12:27:49;;;;;;;15.27;2.45;;;;;;;;;;4898127;29;20111;-58
2023/03/04 12:30:40;;;;;;;18.52;2.17;;;6.10;99.90;;;;;;4897620;29;20028;-60
2023/03/04 12:33:35;;;;;;;15.90;1.95;;;6.20;99.90;;;;;;4897657;29;20132;-60
2023/03/04 12:36:19;;;;;;;8.52;1.30;;;6.20;99.90;;;;;;4898068;29;20391;-59
2023/03/04 12:39:09;;;;;;;26.70;2.13;;;6.00;99.90;;;;;;4898023;29;20039;-58
2023/03/04 12:41:52;;;;;;;18.25;2.65;;;5.90;99.90;;;;;;4897371;29;20261;-58
2023/03/04 12:44:19;;;;;;;14.23;2.53;;;5.80;99.90;;;;;;4897431;29;20112;-61
2023/03/04 12:47:07;;;;;;;14.00;1.70;;;5.80;99.90;;;;;;4897291;29;20032;-57
2023/03/04 12:50:02;;;;;;;18.05;2.22;;;6.50;99.90;;;;;;4897352;29;20079;-61
2023/03/04 12:53:03;;;;;;;16.50;3.00;;;5.90;99.90;;;;;;4897786;29;20036;-61
2023/03/04 12:55:44;;;;;;;17.42;1.60;;;5.80;99.90;;;;;;4897455;29;20032;-58
2023/03/04 12:58:19;;;;;;;19.00;1.58;;;5.80;99.90;;;;;;4896921;29;20054;-56
2023/03/04 13:01:11;;;;;;;19.88;1.65;;;5.90;99.90;;;;;;4897282;29;20032;-56
2023/03/04 13:03:55;;;;;;;13.80;1.50;;;5.70;99.90;;;;;;4896866;29;20044;-60
2023/03/04 13:06:33;;;;;;;16.75;2.35;;;5.90;99.90;;;;;;4897172;29;20440;-58